createdAt,value
2023-03-26T00:01:15.458Z,12.35
2023-03-26T00:03:42.241Z,20.02
2023-03-26T00:06:10.629Z,10.77
2023-03-26T00:08:37.832Z,19.58
2023-03-26T00:11:05.117Z,12.48
2023-03-26T00:13:32.130Z,9.82
2023-03-26T00:15:59.016Z,12.15
2023-03-26T00:18:30.107Z,14.38
2023-03-26T00:20:57.957Z,15.18
2023-03-26T00:23:24.532Z,9.05
2023-03-26T00:25:51.120Z,16.23
2023-03-26T00:28:21.376Z,17.27
2023-03-26T00:30:48.678Z,14.00
2023-03-26T00:33:17.312Z,10.63
2023-03-26T00:35:46.999Z,14.57
2023-03-26T00:38:14.337Z,20.75
2023-03-26T00:40:44.113Z,16.77
2023-03-26T00:43:18.871Z,16.05
2023-03-26T00:45:53.359Z,15.90
2023-03-26T00:48:20.916Z,17.47
2023-03-26T00:50:50.791Z,19.67
2023-03-26T00:53:17.520Z,16.05
2023-03-26T00:55:45.021Z,15.88
2023-03-26T00:58:12.047Z,34.83
2023-03-26T01:00:50.873Z,15.77
2023-03-26T01:03:26.926Z,10.88
2023-03-26T01:05:58.573Z,13.23
2023-03-26T01:08:30.923Z,20.05
2023-03-26T01:11:03.105Z,15.75
2023-03-26T01:13:32.162Z,17.00
2023-03-26T01:16:02.145Z,19.27
2023-03-26T01:18:33.726Z,17.35
2023-03-26T01:21:05.309Z,18.98
2023-03-26T01:24:01.177Z,16.60
2023-03-26T01:26:47.750Z,20.08
2023-03-26T01:29:31.700Z,19.83
2023-03-26T01:31:58.121Z,19.10
2023-03-26T01:34:30.471Z,13.35
2023-03-26T01:37:01.708Z,20.35
2023-03-26T01:39:32.055Z,14.05
2023-03-26T01:42:00.562Z,14.05
2023-03-26T01:44:26.828Z,13.57
2023-03-26T01:46:53.461Z,18.83
2023-03-26T01:49:20.323Z,16.88
2023-03-26T01:51:47.621Z,24.67
2023-03-26T01:54:16.897Z,18.50
2023-03-26T01:56:51.180Z,25.17
2023-03-26T01:59:27.194Z,15.73
2023-03-26T02:01:57.256Z,16.38
2023-03-26T02:04:38.726Z,16.95
2023-03-26T02:07:05.854Z,22.02
2023-03-26T02:09:35.865Z,16.80
2023-03-26T02:12:03.678Z,21.45
2023-03-26T02:14:30.854Z,20.40
2023-03-26T02:16:58.560Z,18.55
2023-03-26T02:19:24.962Z,17.17
2023-03-26T02:21:51.490Z,20.10
2023-03-26T02:24:18.696Z,14.80
2023-03-26T02:26:45.795Z,23.98
2023-03-26T02:29:13.499Z,24.95
2023-03-26T02:31:39.786Z,26.63
2023-03-26T02:34:06.115Z,15.80
2023-03-26T02:36:32.552Z,17.48
2023-03-26T02:39:00.136Z,27.00
2023-03-26T02:41:26.419Z,20.98
2023-03-26T02:43:52.755Z,27.83
2023-03-26T02:46:19.161Z,17.00
2023-03-26T02:48:45.582Z,18.55
2023-03-26T02:51:11.960Z,21.02
2023-03-26T02:53:39.493Z,18.10
2023-03-26T02:56:06.174Z,22.13
2023-03-26T02:58:33.378Z,17.83
2023-03-26T03:01:03.270Z,29.70
2023-03-26T03:03:29.957Z,27.15
2023-03-26T03:05:57.217Z,36.10
2023-03-26T03:08:26.228Z,26.52
2023-03-26T03:10:56.358Z,22.83
2023-03-26T03:13:22.702Z,35.00
2023-03-26T03:15:49.014Z,35.67
2023-03-26T03:18:15.343Z,33.25
2023-03-26T03:20:41.826Z,20.02
2023-03-26T03:23:08.114Z,24.13
2023-03-26T03:25:34.359Z,23.42
2023-03-26T03:28:00.675Z,25.38
2023-03-26T03:30:27.055Z,29.05
2023-03-26T03:32:53.364Z,35.78
2023-03-26T03:35:19.695Z,32.28
2023-03-26T03:37:46.004Z,32.67
2023-03-26T03:40:12.435Z,28.58
2023-03-26T03:42:38.764Z,37.08
2023-03-26T03:45:06.422Z,30.13
2023-03-26T03:47:33.189Z,31.95
2023-03-26T03:50:00.250Z,34.72
2023-03-26T03:52:27.881Z,22.45
2023-03-26T03:54:57.739Z,38.97
2023-03-26T03:57:24.026Z,27.98
2023-03-26T03:59:50.364Z,34.40
2023-03-26T04:02:34.640Z,38.28
2023-03-26T04:05:02.137Z,40.95
2023-03-26T04:07:31.178Z,39.17
2023-03-26T04:09:59.950Z,43.00
2023-03-26T04:12:29.797Z,55.30
2023-03-26T04:14:56.432Z,53.03
2023-03-26T04:17:23.158Z,50.20
2023-03-26T04:19:50.397Z,39.47
2023-03-26T04:22:18.643Z,54.75
2023-03-26T04:24:45.415Z,44.40
2023-03-26T04:27:13.412Z,36.78
2023-03-26T04:29:44.314Z,41.88
2023-03-26T04:32:12.561Z,32.55
2023-03-26T04:34:38.860Z,39.15
2023-03-26T04:37:05.218Z,36.90
2023-03-26T04:39:34.176Z,48.10
2023-03-26T04:42:00.558Z,39.20
2023-03-26T04:44:27.059Z,57.63
2023-03-26T04:46:53.386Z,48.30
2023-03-26T04:49:21.100Z,44.10
2023-03-26T04:51:47.544Z,39.38
2023-03-26T04:54:15.134Z,41.60
2023-03-26T04:56:48.331Z,51.42
2023-03-26T04:59:18.352Z,45.10
2023-03-26T05:01:45.893Z,45.42
2023-03-26T05:04:13.468Z,40.92
2023-03-26T05:06:41.692Z,40.13
2023-03-26T05:09:10.570Z,36.80
2023-03-26T05:11:36.847Z,35.75
2023-03-26T05:14:03.294Z,30.75
2023-03-26T05:16:29.843Z,40.55
2023-03-26T05:18:56.174Z,42.97
2023-03-26T05:21:22.485Z,36.83
2023-03-26T05:23:48.955Z,37.90
2023-03-26T05:26:15.608Z,43.42
2023-03-26T05:28:42.040Z,42.65
2023-03-26T05:31:08.582Z,40.50
2023-03-26T05:33:35.199Z,36.90
2023-03-26T05:36:06.980Z,34.63
2023-03-26T05:38:33.466Z,44.63
2023-03-26T05:41:04.078Z,31.15
2023-03-26T05:43:31.052Z,42.03
2023-03-26T05:45:57.360Z,41.25
2023-03-26T05:48:23.773Z,50.13
2023-03-26T05:50:50.631Z,38.58
2023-03-26T05:53:18.213Z,44.85
2023-03-26T05:55:50.609Z,31.45
2023-03-26T05:58:17.042Z,45.10
2023-03-26T06:00:43.330Z,46.67
2023-03-26T06:03:12.708Z,51.38
2023-03-26T06:05:39.877Z,42.90
2023-03-26T06:08:06.939Z,42.13
2023-03-26T06:10:33.250Z,43.33
2023-03-26T06:12:59.548Z,38.67
2023-03-26T06:15:25.858Z,38.08
2023-03-26T06:17:52.205Z,45.88
2023-03-26T06:20:18.512Z,45.08
2023-03-26T06:22:44.836Z,45.05
2023-03-26T06:25:11.397Z,38.63
2023-03-26T06:27:37.718Z,48.38
2023-03-26T06:30:04.254Z,40.40
2023-03-26T06:32:30.667Z,34.58
2023-03-26T06:34:56.984Z,41.08
2023-03-26T06:37:23.257Z,42.35
2023-03-26T06:39:49.590Z,45.72
2023-03-26T06:42:16.082Z,42.13
2023-03-26T06:44:42.398Z,36.80
2023-03-26T06:47:08.689Z,41.17
2023-03-26T06:49:35.144Z,50.58
2023-03-26T06:52:03.141Z,36.65
2023-03-26T06:54:29.551Z,46.75
2023-03-26T06:56:56.560Z,40.30
2023-03-26T06:59:23.236Z,46.03
2023-03-26T07:01:49.548Z,41.60
2023-03-26T07:04:15.869Z,40.53
2023-03-26T07:06:42.267Z,31.60
2023-03-26T07:09:08.640Z,48.55
2023-03-26T07:11:35.334Z,47.08
2023-03-26T07:14:01.672Z,41.20
2023-03-26T07:16:28.252Z,37.17
2023-03-26T07:18:55.322Z,38.83
2023-03-26T07:21:22.179Z,46.17
2023-03-26T07:23:48.862Z,51.33
2023-03-26T07:26:24.485Z,46.25
2023-03-26T07:29:05.180Z,42.75
2023-03-26T07:31:42.161Z,45.08
2023-03-26T07:34:08.497Z,47.00
2023-03-26T07:36:48.660Z,32.90
2023-03-26T07:39:33.486Z,45.85
2023-03-26T07:42:03.400Z,42.05
2023-03-26T07:44:36.068Z,33.25
2023-03-26T07:47:07.889Z,43.15
2023-03-26T07:49:35.348Z,32.53
2023-03-26T07:52:01.751Z,37.03
2023-03-26T07:54:28.328Z,43.90
2023-03-26T07:56:58.996Z,50.55
2023-03-26T07:59:39.167Z,38.50
2023-03-26T08:02:08.835Z,36.58
2023-03-26T08:04:47.628Z,40.75
2023-03-26T08:07:17.131Z,35.78
2023-03-26T08:09:54.585Z,34.53
2023-03-26T08:12:23.698Z,41.58
2023-03-26T08:14:50.175Z,34.75
2023-03-26T08:17:43.548Z,46.10
2023-03-26T08:20:31.282Z,35.60
2023-03-26T08:23:02.421Z,43.53
2023-03-26T08:25:33.444Z,46.22
2023-03-26T08:28:12.248Z,43.88
2023-03-26T08:30:38.650Z,47.45
2023-03-26T08:33:25.805Z,41.50
2023-03-26T08:35:52.119Z,40.75
2023-03-26T08:38:19.456Z,53.80
2023-03-26T08:40:48.472Z,51.67
2023-03-26T08:43:33.451Z,38.20
2023-03-26T08:45:59.726Z,38.83
2023-03-26T08:48:44.717Z,40.72
2023-03-26T08:51:49.342Z,42.00
2023-03-26T08:54:30.712Z,43.58
2023-03-26T08:57:09.301Z,44.10
2023-03-26T08:59:41.630Z,39.40
2023-03-26T09:02:20.727Z,32.42
2023-03-26T09:05:17.755Z,34.80
2023-03-26T09:07:44.002Z,28.27
2023-03-26T09:10:39.460Z,36.17
2023-03-26T09:13:06.029Z,27.70
2023-03-26T09:15:35.770Z,39.55
2023-03-26T09:18:05.724Z,40.75
2023-03-26T09:20:50.806Z,36.22
2023-03-26T09:23:19.781Z,29.83
2023-03-26T09:25:46.297Z,28.15
2023-03-26T09:28:20.669Z,34.85
2023-03-26T09:30:53.390Z,27.45
2023-03-26T09:33:20.313Z,34.03
2023-03-26T09:36:11.833Z,26.98
2023-03-26T09:38:46.125Z,22.42
2023-03-26T09:41:14.613Z,25.77
2023-03-26T09:43:46.906Z,24.95
2023-03-26T09:46:19.833Z,27.70
2023-03-26T09:48:48.889Z,29.58
2023-03-26T09:51:29.841Z,22.52
2023-03-26T09:54:10.285Z,30.30
2023-03-26T09:56:39.791Z,31.77
2023-03-26T09:59:24.452Z,21.60
2023-03-26T10:02:09.670Z,19.50
2023-03-26T10:05:00.390Z,18.08
2023-03-26T10:07:45.516Z,21.75
2023-03-26T10:10:23.098Z,22.40
2023-03-26T10:13:14.793Z,14.30
2023-03-26T10:16:00.394Z,18.45
2023-03-26T10:18:32.525Z,22.10
2023-03-26T10:21:04.014Z,15.82
2023-03-26T10:23:30.297Z,15.90
2023-03-26T10:25:56.565Z,19.02
2023-03-26T10:28:23.091Z,15.02
2023-03-26T10:30:52.156Z,19.48
2023-03-26T10:33:18.427Z,17.27
2023-03-26T10:35:44.717Z,15.95
2023-03-26T10:38:19.983Z,23.33
2023-03-26T10:41:04.608Z,13.10
2023-03-26T10:44:01.272Z,11.40
2023-03-26T10:46:39.578Z,16.67
2023-03-26T10:49:08.880Z,13.60
2023-03-26T10:51:38.186Z,16.33
2023-03-26T10:54:07.502Z,14.80
2023-03-26T10:56:47.100Z,15.95
2023-03-26T10:59:14.481Z,16.15
2023-03-26T11:01:51.278Z,17.17
2023-03-26T11:04:23.618Z,14.40
2023-03-26T11:06:59.069Z,15.98
2023-03-26T11:09:31.303Z,9.85
2023-03-26T11:12:25.661Z,14.75
2023-03-26T11:14:54.360Z,10.50
2023-03-26T11:17:40.733Z,15.05
2023-03-26T11:20:08.220Z,18.67
2023-03-26T11:22:42.448Z,18.33
2023-03-26T11:25:17.667Z,9.90
2023-03-26T11:27:49.939Z,22.55
2023-03-26T11:30:27.862Z,15.50
2023-03-26T11:32:56.612Z,14.90
2023-03-26T11:35:40.993Z,17.80
2023-03-26T11:38:20.362Z,20.87
2023-03-26T11:40:50.957Z,16.75
2023-03-26T11:43:20.776Z,14.27
2023-03-26T11:45:47.977Z,14.85
2023-03-26T11:48:18.356Z,18.98
2023-03-26T11:50:47.958Z,17.02
2023-03-26T11:53:17.620Z,15.75
2023-03-26T11:56:01.466Z,16.55
2023-03-26T11:58:42.922Z,10.85
2023-03-26T12:01:22.791Z,9.27
2023-03-26T12:04:03.482Z,20.30
2023-03-26T12:06:29.899Z,9.57
2023-03-26T12:08:57.048Z,16.15
2023-03-26T12:11:28.176Z,9.25
2023-03-26T12:14:02.439Z,20.67
2023-03-26T12:16:28.945Z,14.50
2023-03-26T12:18:59.882Z,11.27
2023-03-26T12:21:27.019Z,17.75
2023-03-26T12:23:58.233Z,9.82
2023-03-26T12:26:44.861Z,18.52
2023-03-26T12:29:12.754Z,21.85
2023-03-26T12:31:46.808Z,20.92
2023-03-26T12:34:15.402Z,10.90
2023-03-26T12:36:49.079Z,15.63
2023-03-26T12:40:09.108Z,6.93
2023-03-26T12:44:49.556Z,10.38
2023-03-26T12:45:20.008Z,9.27
2023-03-26T12:48:00.105Z,10.77
2023-03-26T12:50:35.751Z,18.95
2023-03-26T12:53:05.097Z,15.80
2023-03-26T12:55:37.958Z,9.55
2023-03-26T12:58:14.262Z,17.10
2023-03-26T13:00:46.476Z,13.57
2023-03-26T13:03:13.351Z,13.98
2023-03-26T13:05:54.513Z,17.00
2023-03-26T13:08:20.954Z,13.57
2023-03-26T13:10:47.271Z,41.70
2023-03-26T13:13:16.868Z,11.82
2023-03-26T13:15:47.211Z,14.68
2023-03-26T13:18:33.402Z,14.73
2023-03-26T13:20:59.712Z,11.43
2023-03-26T13:23:29.059Z,12.82
2023-03-26T13:26:15.602Z,14.80
2023-03-26T13:28:47.804Z,13.00
2023-03-26T13:31:14.085Z,12.23
2023-03-26T13:33:59.294Z,11.02
2023-03-26T13:36:25.841Z,14.73
2023-03-26T13:39:00.921Z,8.93
2023-03-26T13:41:46.155Z,9.07
2023-03-26T13:44:12.369Z,12.00
2023-03-26T13:46:40.784Z,9.55
2023-03-26T13:49:15.593Z,8.50
2023-03-26T13:51:50.292Z,7.95
2023-03-26T13:54:21.327Z,9.23
2023-03-26T13:56:52.323Z,12.55
2023-03-26T13:59:27.017Z,11.90
2023-03-26T14:01:55.664Z,12.87
2023-03-26T14:04:35.915Z,5.75
2023-03-26T14:07:10.625Z,6.47
2023-03-26T14:09:42.009Z,11.18
2023-03-26T14:12:34.658Z,11.85
2023-03-26T14:15:02.772Z,8.88
2023-03-26T14:17:41.477Z,5.47
2023-03-26T14:20:27.166Z,7.60
2023-03-26T14:23:13.704Z,9.80
2023-03-26T14:25:58.906Z,3.38
2023-03-26T14:28:34.310Z,14.07
2023-03-26T14:31:00.625Z,8.18
2023-03-26T14:33:27.885Z,9.70
2023-03-26T14:36:09.075Z,17.02
2023-03-26T14:38:39.007Z,12.00
2023-03-26T14:41:05.247Z,7.22
2023-03-26T14:43:50.424Z,8.23
2023-03-26T14:46:33.849Z,4.82
2023-03-26T14:49:03.013Z,9.73
2023-03-26T14:51:29.273Z,8.07
2023-03-26T14:53:59.048Z,13.65
2023-03-26T14:56:25.489Z,8.45
2023-03-26T14:59:00.682Z,10.82
2023-03-26T15:01:28.221Z,7.15
2023-03-26T15:03:54.518Z,10.05
2023-03-26T15:06:30.187Z,8.88
2023-03-26T15:09:15.419Z,13.27
2023-03-26T15:11:44.764Z,14.80
2023-03-26T15:14:11.165Z,12.40
2023-03-26T15:16:46.679Z,3.80
2023-03-26T15:21:42.446Z,12.50
2023-03-26T15:24:27.503Z,12.68
2023-03-26T15:27:12.128Z,3.53
2023-03-26T15:29:49.571Z,9.57
2023-03-26T15:32:18.941Z,7.00
2023-03-26T15:35:00.450Z,7.85
2023-03-26T15:37:46.308Z,13.70
2023-03-26T15:40:31.677Z,10.63
2023-03-26T15:42:58.060Z,7.95
2023-03-26T15:45:32.701Z,4.47
2023-03-26T15:48:00.950Z,7.03
2023-03-26T15:50:46.459Z,5.47
2023-03-26T15:53:18.562Z,10.18
2023-03-26T15:56:07.713Z,5.47
2023-03-26T15:58:45.020Z,7.35
2023-03-26T16:01:33.676Z,8.73
2023-03-26T16:04:35.638Z,10.95
2023-03-26T16:07:28.940Z,12.18
2023-03-26T16:09:58.120Z,11.88
2023-03-26T16:12:30.721Z,10.25
2023-03-26T16:15:05.981Z,9.75
2023-03-26T16:17:53.421Z,8.43
2023-03-26T16:20:31.429Z,7.28
2023-03-26T16:23:03.525Z,8.68
2023-03-26T16:25:34.630Z,10.20
2023-03-26T16:28:13.061Z,9.63
2023-03-26T16:30:39.531Z,7.45
2023-03-26T16:33:12.550Z,10.07
2023-03-26T16:35:59.531Z,5.00
2023-03-26T16:38:27.289Z,10.20
2023-03-26T16:41:00.094Z,6.95
2023-03-26T16:43:26.912Z,9.32
2023-03-26T16:46:08.908Z,9.43
2023-03-26T16:48:50.105Z,8.00
2023-03-26T16:51:32.872Z,8.10
2023-03-26T16:53:59.304Z,3.50
2023-03-26T16:56:44.532Z,14.40
2023-03-26T16:59:36.579Z,9.20
2023-03-26T17:02:13.677Z,8.63
2023-03-26T17:04:43.809Z,12.18
2023-03-26T17:07:17.064Z,5.88
2023-03-26T17:09:44.069Z,10.38
2023-03-26T17:12:25.635Z,6.80
2023-03-26T17:14:52.026Z,6.00
2023-03-26T17:17:27.558Z,3.92
2023-03-26T17:22:20.034Z,5.90
2023-03-26T17:24:52.824Z,17.05
2023-03-26T17:27:34.084Z,4.10
2023-03-26T17:30:03.781Z,8.55
2023-03-26T17:32:48.776Z,6.55
2023-03-26T17:35:15.399Z,16.20
2023-03-26T17:37:47.784Z,7.78
2023-03-26T17:40:49.638Z,8.05
2023-03-26T17:43:51.218Z,5.75
2023-03-26T17:46:17.586Z,5.97
2023-03-26T17:48:47.008Z,11.52
2023-03-26T17:51:31.830Z,9.10
2023-03-26T17:53:58.669Z,7.35
2023-03-26T17:56:27.696Z,9.23
2023-03-26T17:59:00.889Z,5.15
2023-03-26T18:01:41.469Z,10.00
2023-03-26T18:04:11.575Z,5.97
2023-03-26T18:06:37.875Z,6.90
2023-03-26T18:09:08.040Z,7.68
2023-03-26T18:11:38.371Z,4.45
2023-03-26T18:14:27.972Z,4.63
2023-03-26T18:16:56.760Z,9.13
2023-03-26T18:19:23.429Z,8.13
2023-03-26T18:21:51.329Z,9.45
2023-03-26T18:24:27.507Z,3.92
2023-03-26T18:26:55.941Z,6.53
2023-03-26T18:29:26.300Z,8.88
2023-03-26T18:32:00.633Z,5.68
2023-03-26T18:34:29.517Z,9.35
2023-03-26T18:37:11.466Z,5.10
2023-03-26T18:39:38.273Z,6.65
2023-03-26T18:42:05.817Z,3.92
2023-03-26T18:44:34.872Z,5.40
2023-03-26T18:47:04.080Z,6.78
2023-03-26T18:49:30.684Z,8.85
2023-03-26T18:51:57.696Z,7.43
2023-03-26T18:54:24.672Z,9.63
2023-03-26T18:56:52.745Z,13.05
2023-03-26T18:59:27.926Z,6.88
2023-03-26T19:02:04.291Z,11.07
2023-03-26T19:04:33.434Z,6.65
2023-03-26T19:07:01.925Z,5.10
2023-03-26T19:09:31.992Z,8.38
2023-03-26T19:12:04.349Z,5.32
2023-03-26T19:14:35.369Z,5.75
2023-03-26T19:17:02.969Z,8.07
2023-03-26T19:19:32.123Z,10.60
2023-03-26T19:21:59.723Z,6.10
2023-03-26T19:24:27.031Z,3.25
2023-03-26T19:26:53.358Z,3.05
2023-03-26T19:29:24.903Z,10.05
2023-03-26T19:31:52.789Z,8.57
2023-03-26T19:34:31.815Z,5.97
2023-03-26T19:37:01.054Z,8.40
2023-03-26T19:39:41.489Z,7.20
2023-03-26T19:42:11.404Z,10.90
2023-03-26T19:44:39.568Z,9.00
2023-03-26T19:47:08.124Z,4.45
2023-03-26T19:49:54.532Z,15.32
2023-03-26T19:52:25.720Z,3.72
2023-03-26T19:54:59.667Z,3.35
2023-03-26T19:57:27.957Z,8.20
2023-03-26T19:59:55.472Z,7.45
2023-03-26T20:02:22.551Z,11.48
2023-03-26T20:04:48.982Z,7.28
2023-03-26T20:07:22.009Z,5.90
2023-03-26T20:10:02.971Z,4.90
2023-03-26T20:12:29.456Z,5.35
2023-03-26T20:14:55.734Z,7.85
2023-03-26T20:17:22.267Z,5.65
2023-03-26T20:19:48.604Z,10.32
2023-03-26T20:22:21.375Z,8.20
2023-03-26T20:24:47.688Z,6.55
2023-03-26T20:27:14.472Z,8.32
2023-03-26T20:29:42.116Z,6.32
2023-03-26T20:32:18.693Z,4.63
2023-03-26T20:34:45.660Z,5.72
2023-03-26T20:37:11.986Z,7.88
2023-03-26T20:39:39.490Z,7.45
2023-03-26T20:42:06.286Z,6.20
2023-03-26T20:44:32.977Z,9.05
2023-03-26T20:46:59.571Z,5.93
2023-03-26T20:49:29.251Z,10.75
2023-03-26T20:51:55.835Z,7.70
2023-03-26T20:54:23.201Z,8.45
2023-03-26T20:56:50.117Z,8.98
2023-03-26T20:59:18.946Z,6.88
2023-03-26T21:01:47.075Z,4.72
2023-03-26T21:04:13.811Z,6.65
2023-03-26T21:06:42.227Z,8.68
2023-03-26T21:09:14.888Z,7.85
2023-03-26T21:11:52.436Z,4.55
2023-03-26T21:14:21.816Z,5.22
2023-03-26T21:16:48.436Z,8.52
2023-03-26T21:19:14.942Z,9.00
2023-03-26T21:21:46.329Z,6.90
2023-03-26T21:24:35.117Z,5.65
2023-03-26T21:27:12.566Z,10.07
2023-03-26T21:29:39.067Z,2.60
2023-03-26T21:32:05.833Z,6.38
2023-03-26T21:34:36.221Z,4.72
2023-03-26T21:37:04.226Z,5.70
2023-03-26T21:39:30.673Z,8.30
2023-03-26T21:42:04.321Z,10.48
2023-03-26T21:44:32.324Z,8.20
2023-03-26T21:46:59.087Z,8.38
2023-03-26T21:49:25.530Z,14.23
2023-03-26T21:51:51.948Z,10.90
2023-03-26T21:54:22.739Z,7.32
2023-03-26T21:57:05.954Z,3.40
2023-03-26T21:59:32.300Z,3.92
2023-03-26T22:02:17.630Z,6.32
2023-03-26T22:04:53.748Z,8.85
2023-03-26T22:07:45.886Z,10.13
2023-03-26T22:10:12.328Z,21.77
2023-03-26T22:12:38.730Z,8.43
2023-03-26T22:15:05.244Z,12.63
2023-03-26T22:17:32.969Z,12.80
2023-03-26T22:20:01.216Z,14.70
2023-03-26T22:22:28.325Z,5.82
2023-03-26T22:24:54.621Z,3.55
2023-03-26T22:27:20.905Z,7.68
2023-03-26T22:29:47.251Z,5.60
2023-03-26T22:32:13.831Z,8.52
2023-03-26T22:34:41.369Z,10.40
2023-03-26T22:37:07.688Z,8.20
2023-03-26T22:39:34.013Z,8.43
2023-03-26T22:42:02.868Z,6.72
2023-03-26T22:44:29.169Z,9.23
2023-03-26T22:46:56.931Z,5.10
2023-03-26T22:49:26.060Z,5.65
2023-03-26T22:51:52.836Z,7.25
2023-03-26T22:54:19.232Z,4.13
2023-03-26T22:56:45.746Z,1.98
2023-03-26T22:59:12.176Z,13.55
2023-03-26T23:01:38.958Z,5.80
2023-03-26T23:04:05.466Z,7.80
2023-03-26T23:06:31.961Z,7.75
2023-03-26T23:08:58.914Z,6.95
2023-03-26T23:11:25.259Z,5.05
2023-03-26T23:13:51.716Z,5.63
2023-03-26T23:16:18.966Z,12.07
2023-03-26T23:18:45.224Z,10.63
2023-03-26T23:21:15.336Z,7.50
2023-03-26T23:23:42.160Z,7.68
2023-03-26T23:26:08.435Z,9.48
2023-03-26T23:28:35.347Z,5.50
2023-03-26T23:31:03.292Z,6.13
2023-03-26T23:33:31.250Z,11.40
2023-03-26T23:35:58.462Z,18.42
2023-03-26T23:38:25.364Z,6.85
2023-03-26T23:40:57.459Z,6.80
2023-03-26T23:43:24.719Z,4.32
2023-03-26T23:45:51.568Z,7.50
2023-03-26T23:48:22.254Z,12.73
2023-03-26T23:50:52.816Z,4.97
2023-03-26T23:53:30.678Z,4.43
2023-03-26T23:55:58.016Z,5.35
2023-03-26T23:58:27.134Z,7.50
